createdAt,value
2022-10-13T00:03:33.590Z,15.20
2022-10-13T00:09:23.513Z,15.15
2022-10-13T00:15:10.920Z,15.23
2022-10-13T00:21:06.696Z,15.37
2022-10-13T00:26:54.174Z,15.30
2022-10-13T00:32:40.862Z,15.32
2022-10-13T00:38:27.781Z,15.24
2022-10-13T00:45:14.608Z,15.28
2022-10-13T00:51:01.622Z,15.22
2022-10-13T00:56:50.770Z,15.21
2022-10-13T01:02:38.340Z,15.18
2022-10-13T01:08:29.483Z,15.20
2022-10-13T01:14:38.492Z,15.14
2022-10-13T01:20:47.658Z,15.18
2022-10-13T01:26:53.821Z,15.28
2022-10-13T01:33:17.523Z,14.87
2022-10-13T01:39:26.174Z,14.79
2022-10-13T01:45:20.378Z,15.10
2022-10-13T01:51:20.934Z,15.22
2022-10-13T01:57:46.616Z,15.17
2022-10-13T02:03:56.893Z,15.11
2022-10-13T02:09:48.261Z,15.22
2022-10-13T02:15:52.808Z,15.19
2022-10-13T02:21:42.542Z,15.19
2022-10-13T02:27:31.248Z,15.15
2022-10-13T02:33:19.138Z,15.08
2022-10-13T02:39:07.503Z,15.03
2022-10-13T02:44:56.464Z,14.91
2022-10-13T02:50:43.149Z,15.06
2022-10-13T02:56:31.803Z,15.00
2022-10-13T03:02:19.243Z,15.01
2022-10-13T03:08:06.399Z,15.11
2022-10-13T03:13:53.064Z,15.02
2022-10-13T03:19:39.830Z,14.93
2022-10-13T03:25:30.203Z,14.76
2022-10-13T03:31:18.231Z,14.81
2022-10-13T03:37:06.781Z,14.80
2022-10-13T03:43:02.655Z,14.76
2022-10-13T03:48:52.457Z,14.79
2022-10-13T03:54:42.502Z,14.86
2022-10-13T04:00:29.177Z,14.86
2022-10-13T04:06:15.886Z,14.83
2022-10-13T04:12:03.181Z,14.79
2022-10-13T04:17:49.926Z,14.80
2022-10-13T04:23:37.377Z,14.80
2022-10-13T04:29:24.183Z,14.72
2022-10-13T04:35:20.501Z,14.78
2022-10-13T04:41:08.726Z,14.69
2022-10-13T04:46:55.484Z,14.82
2022-10-13T04:52:42.135Z,14.74
2022-10-13T04:58:29.430Z,14.33
2022-10-13T05:04:23.674Z,14.33
2022-10-13T05:10:13.559Z,14.42
2022-10-13T05:16:02.406Z,14.52
2022-10-13T05:21:56.592Z,14.54
2022-10-13T05:27:46.400Z,14.53
2022-10-13T05:33:35.341Z,14.51
2022-10-13T05:39:25.613Z,14.56
2022-10-13T05:45:18.097Z,14.52
2022-10-13T05:51:14.250Z,14.53
2022-10-13T05:57:35.952Z,14.60
2022-10-13T06:03:24.036Z,14.60
2022-10-13T06:09:11.950Z,14.61
2022-10-13T06:15:00.986Z,14.63
2022-10-13T06:20:51.046Z,14.67
2022-10-13T06:26:40.951Z,14.69
2022-10-13T06:32:31.605Z,14.68
2022-10-13T06:38:19.224Z,14.66
2022-10-13T06:44:10.618Z,14.68
2022-10-13T06:50:02.746Z,14.63
2022-10-13T06:55:52.576Z,14.62
2022-10-13T07:01:43.150Z,14.66
2022-10-13T07:15:02.145Z,14.53
2022-10-13T07:20:49.451Z,14.63
2022-10-13T07:26:36.781Z,14.87
2022-10-13T07:32:23.587Z,14.45
2022-10-13T07:38:11.051Z,14.51
2022-10-13T07:43:58.678Z,14.71
2022-10-13T07:50:11.859Z,15.09
2022-10-13T07:56:10.575Z,15.64
2022-10-13T08:02:06.490Z,15.93
2022-10-13T08:08:01.668Z,15.94
2022-10-13T08:13:50.513Z,15.83
2022-10-13T08:19:43.433Z,15.68
2022-10-13T08:25:49.756Z,15.71
2022-10-13T08:31:36.821Z,15.71
2022-10-13T08:37:25.893Z,15.85
2022-10-13T08:43:16.126Z,16.49
2022-10-13T08:49:02.995Z,17.43
2022-10-13T08:54:50.454Z,17.88
2022-10-13T09:00:37.580Z,17.56
2022-10-13T09:06:29.093Z,18.02
2022-10-13T09:12:22.172Z,17.53
2022-10-13T09:18:12.000Z,17.60
2022-10-13T09:24:08.153Z,17.38
2022-10-13T09:29:54.923Z,17.74
2022-10-13T09:35:46.576Z,18.02
2022-10-13T09:41:35.063Z,18.03
2022-10-13T09:47:23.057Z,18.48
2022-10-13T09:53:32.621Z,19.15
2022-10-13T09:59:28.664Z,19.64
2022-10-13T10:05:35.525Z,19.98
2022-10-13T10:11:59.040Z,20.29
2022-10-13T10:33:56.157Z,20.69
2022-10-13T10:41:04.209Z,20.81
2022-10-13T10:47:53.605Z,20.33
2022-10-13T11:34:41.658Z,18.15
2022-10-13T11:47:56.840Z,17.55
2022-10-13T11:54:26.580Z,17.29
2022-10-13T12:00:23.949Z,17.31
2022-10-13T12:06:49.994Z,17.38
2022-10-13T12:12:37.549Z,17.10
2022-10-13T12:18:39.670Z,16.78
2022-10-13T12:24:33.100Z,17.04
2022-10-13T12:30:28.397Z,17.12
2022-10-13T12:36:25.366Z,17.21
2022-10-13T12:42:14.325Z,17.53
2022-10-13T12:48:04.748Z,17.58
2022-10-13T12:53:51.750Z,17.69
2022-10-13T12:59:41.684Z,17.53
2022-10-13T13:05:50.767Z,17.64
2022-10-13T13:11:39.320Z,17.34
2022-10-13T13:17:53.363Z,17.36
2022-10-13T13:23:40.355Z,17.46
2022-10-13T13:29:27.468Z,17.57
2022-10-13T13:35:14.326Z,17.77
2022-10-13T13:41:03.897Z,18.03
2022-10-13T13:47:04.492Z,18.05
2022-10-13T13:52:53.959Z,18.19
2022-10-13T13:59:33.883Z,18.11
2022-10-13T14:05:20.660Z,18.36
2022-10-13T14:11:07.904Z,18.27
2022-10-13T14:16:55.016Z,18.27
2022-10-13T14:22:41.851Z,17.78
2022-10-13T14:28:28.759Z,17.88
2022-10-13T14:34:17.378Z,17.63
2022-10-13T14:40:08.861Z,17.58
2022-10-13T14:46:02.132Z,17.76
2022-10-13T14:51:49.344Z,17.64
2022-10-13T14:57:37.817Z,17.97
2022-10-13T15:13:07.453Z,17.77
2022-10-13T15:50:19.978Z,17.56
2022-10-13T15:56:08.235Z,17.51
2022-10-13T16:01:55.040Z,17.70
2022-10-13T16:07:42.092Z,17.51
2022-10-13T16:13:33.180Z,17.37
2022-10-13T16:19:23.620Z,16.88
2022-10-13T16:25:11.163Z,16.97
2022-10-13T16:31:02.282Z,17.09
2022-10-13T16:36:50.726Z,17.17
2022-10-13T16:42:42.421Z,17.26
2022-10-13T16:48:31.632Z,17.35
2022-10-13T16:54:27.393Z,17.44
2022-10-13T17:00:14.878Z,17.50
2022-10-13T17:06:02.202Z,17.33
2022-10-13T17:11:48.907Z,17.29
2022-10-13T17:17:35.860Z,17.24
2022-10-13T17:23:24.489Z,17.12
2022-10-13T17:29:18.434Z,17.11
2022-10-13T17:35:06.315Z,17.13
2022-10-13T17:40:58.741Z,17.11
2022-10-13T17:46:49.426Z,16.98
2022-10-13T17:52:39.867Z,16.97
2022-10-13T17:58:29.977Z,16.83
2022-10-13T18:04:20.047Z,16.75
2022-10-13T18:10:18.243Z,16.62
2022-10-13T18:16:14.960Z,16.46
2022-10-13T18:22:02.200Z,16.30
2022-10-13T18:27:52.056Z,16.18
2022-10-13T18:33:39.279Z,16.11
2022-10-13T18:39:28.799Z,16.01
2022-10-13T18:45:15.549Z,16.01
2022-10-13T18:51:05.015Z,15.97
2022-10-13T18:57:12.775Z,15.82
2022-10-13T19:03:00.168Z,15.66
2022-10-13T19:08:47.368Z,15.56
2022-10-13T19:14:36.810Z,15.55
2022-10-13T19:20:23.529Z,15.50
2022-10-13T19:26:20.281Z,15.29
2022-10-13T19:32:08.033Z,15.22
2022-10-13T19:37:54.792Z,15.15
2022-10-13T19:43:43.893Z,15.09
2022-10-13T19:49:30.644Z,15.04
2022-10-13T19:55:22.914Z,15.01
2022-10-13T20:14:16.864Z,14.84
2022-10-13T20:20:07.257Z,14.69
2022-10-13T20:25:54.017Z,14.63
2022-10-13T20:33:20.541Z,14.56
2022-10-13T20:39:04.450Z,14.41
2022-10-13T20:44:55.181Z,14.40
2022-10-13T20:58:20.129Z,14.24
2022-10-13T21:04:10.133Z,14.25
2022-10-13T21:10:19.258Z,14.25
2022-10-13T21:17:16.591Z,14.15
2022-10-13T21:23:07.743Z,14.15
2022-10-13T21:28:56.155Z,14.11
2022-10-13T21:34:43.072Z,14.05
2022-10-13T21:40:29.916Z,14.02
2022-10-13T21:46:32.018Z,13.80
2022-10-13T21:52:21.650Z,13.64
2022-10-13T21:58:08.652Z,13.61
2022-10-13T22:04:00.334Z,13.53
2022-10-13T22:09:47.278Z,13.53
2022-10-13T22:15:34.946Z,13.57
2022-10-13T22:21:24.748Z,13.53
2022-10-13T22:27:11.494Z,13.56
2022-10-13T22:32:58.186Z,13.52
2022-10-13T22:38:46.275Z,13.57
2022-10-13T22:44:32.849Z,13.58
2022-10-13T22:50:19.513Z,13.61
2022-10-13T22:56:08.005Z,13.67
2022-10-13T23:01:54.522Z,13.57
2022-10-13T23:07:41.116Z,13.60
2022-10-13T23:13:27.669Z,13.73
2022-10-13T23:19:16.326Z,13.66
2022-10-13T23:25:02.943Z,13.60
2022-10-13T23:30:49.442Z,13.62
2022-10-13T23:36:36.724Z,13.56
2022-10-13T23:42:23.329Z,13.49
2022-10-13T23:48:10.262Z,13.53
2022-10-13T23:54:00.130Z,13.40
2022-10-13T23:59:47.268Z,13.45
